createdAt,value
2019-05-05T00:01:25.239Z,99.90
2019-05-05T00:04:51.174Z,99.90
2019-05-05T00:07:58.252Z,99.90
2019-05-05T00:11:16.463Z,99.90
2019-05-05T00:14:35.094Z,99.90
2019-05-05T00:17:42.037Z,99.90
2019-05-05T00:20:49.068Z,99.90
2019-05-05T00:23:56.085Z,99.90
2019-05-05T00:27:04.293Z,99.90
2019-05-05T00:30:11.586Z,99.90
2019-05-05T00:33:18.538Z,99.90
2019-05-05T00:36:25.516Z,99.90
2019-05-05T00:39:34.410Z,99.90
2019-05-05T00:42:41.143Z,99.90
2019-05-05T00:45:49.693Z,99.90
2019-05-05T00:48:56.642Z,99.90
2019-05-05T00:52:05.108Z,99.90
2019-05-05T00:55:12.201Z,99.90
2019-05-05T00:58:19.246Z,99.90
2019-05-05T01:01:44.839Z,99.90
2019-05-05T01:05:02.030Z,99.90
2019-05-05T01:08:14.293Z,99.90
2019-05-05T01:11:21.565Z,99.90
2019-05-05T01:14:28.543Z,99.90
2019-05-05T01:17:35.587Z,99.90
2019-05-05T01:20:44.705Z,99.90
2019-05-05T01:23:51.134Z,99.90
2019-05-05T01:26:58.155Z,99.90
2019-05-05T01:30:11.769Z,99.90
2019-05-05T01:33:28.086Z,99.90
2019-05-05T01:36:35.071Z,99.90
2019-05-05T01:40:00.214Z,99.90
2019-05-05T01:43:07.228Z,99.90
2019-05-05T01:46:14.458Z,99.90
2019-05-05T01:49:21.464Z,99.90
2019-05-05T01:52:28.425Z,99.90
2019-05-05T01:55:35.407Z,99.90
2019-05-05T01:58:44.196Z,99.90
2019-05-05T02:01:51.203Z,99.90
2019-05-05T02:04:58.115Z,99.90
2019-05-05T02:08:05.294Z,99.90
2019-05-05T02:11:12.282Z,99.90
2019-05-05T02:14:19.270Z,99.90
2019-05-05T02:17:26.266Z,99.90
2019-05-05T02:20:57.807Z,99.90
2019-05-05T02:24:05.385Z,99.90
2019-05-05T02:27:14.397Z,99.90
2019-05-05T02:30:29.809Z,99.90
2019-05-05T02:33:37.091Z,99.90
2019-05-05T02:36:45.948Z,99.90
2019-05-05T02:39:58.939Z,99.90
2019-05-05T02:43:02.083Z,99.90
2019-05-05T02:46:46.094Z,99.90
2019-05-05T02:49:54.870Z,99.90
2019-05-05T02:53:04.397Z,99.90
2019-05-05T02:56:19.388Z,99.90
2019-05-05T02:59:35.258Z,99.90
2019-05-05T03:02:43.468Z,99.90
2019-05-05T03:05:50.903Z,99.90
2019-05-05T03:08:59.252Z,99.90
2019-05-05T03:12:06.237Z,99.90
2019-05-05T03:15:20.530Z,99.90
2019-05-05T03:18:27.716Z,99.90
2019-05-05T03:21:35.048Z,99.90
2019-05-05T03:24:44.687Z,99.90
2019-05-05T03:27:53.352Z,99.90
2019-05-05T03:31:00.454Z,99.90
2019-05-05T03:34:07.593Z,99.90
2019-05-05T03:37:14.772Z,99.90
2019-05-05T03:40:25.942Z,99.90
2019-05-05T03:43:34.391Z,99.90
2019-05-05T03:46:43.856Z,99.90
2019-05-05T03:49:50.895Z,99.90
2019-05-05T03:52:58.068Z,99.90
2019-05-05T03:56:05.090Z,99.90
2019-05-05T03:59:14.088Z,99.90
2019-05-05T04:02:44.759Z,99.90
2019-05-05T04:05:55.372Z,99.90
2019-05-05T04:09:04.241Z,99.90
2019-05-05T04:12:10.957Z,99.90
2019-05-05T04:15:18.075Z,99.90
2019-05-05T04:18:28.031Z,99.90
2019-05-05T04:21:36.794Z,99.90
2019-05-05T04:24:43.721Z,99.90
2019-05-05T04:27:50.659Z,99.90
2019-05-05T04:30:57.608Z,99.90
2019-05-05T04:34:04.595Z,99.90
2019-05-05T04:37:11.543Z,99.90
2019-05-05T04:40:18.556Z,99.90
2019-05-05T04:43:25.584Z,99.90
2019-05-05T04:46:33.826Z,99.90
2019-05-05T04:49:53.810Z,99.90
2019-05-05T04:53:04.429Z,99.90
2019-05-05T04:56:10.824Z,99.90
2019-05-05T04:59:17.800Z,99.90
2019-05-05T05:02:35.369Z,99.90
2019-05-05T05:05:59.747Z,99.90
2019-05-05T05:09:07.328Z,99.90
2019-05-05T05:12:14.678Z,99.90
2019-05-05T05:15:23.464Z,99.90
2019-05-05T05:18:30.361Z,99.90
2019-05-05T05:21:37.393Z,99.90
2019-05-05T05:24:44.754Z,99.90
2019-05-05T05:27:53.473Z,99.90
2019-05-05T05:31:00.351Z,99.90
2019-05-05T05:34:07.369Z,99.90
2019-05-05T05:37:14.384Z,99.90
2019-05-05T05:40:26.899Z,99.90
2019-05-05T05:43:43.973Z,99.90
2019-05-05T05:46:58.553Z,99.90
2019-05-05T05:50:24.490Z,99.90
2019-05-05T05:53:31.615Z,99.90
2019-05-05T05:56:38.567Z,99.90
2019-05-05T05:59:45.556Z,99.90
2019-05-05T06:02:54.395Z,99.90
2019-05-05T06:06:01.191Z,99.90
2019-05-05T06:09:08.355Z,99.90
2019-05-05T06:12:15.289Z,99.90
2019-05-05T06:15:24.291Z,99.90
2019-05-05T06:18:30.978Z,99.90
2019-05-05T06:21:38.136Z,99.90
2019-05-05T06:24:45.213Z,99.90
2019-05-05T06:27:54.038Z,99.90
2019-05-05T06:31:00.783Z,99.90
2019-05-05T06:34:07.815Z,99.90
2019-05-05T06:37:14.779Z,99.90
2019-05-05T06:40:23.709Z,99.90
2019-05-05T06:43:55.679Z,99.90
2019-05-05T06:47:07.822Z,99.90
2019-05-05T06:50:14.856Z,99.90
2019-05-05T06:53:23.803Z,99.90
2019-05-05T06:56:30.463Z,99.90
2019-05-05T06:59:37.464Z,99.90
2019-05-05T07:02:44.564Z,98.70
2019-05-05T07:05:53.775Z,99.90
2019-05-05T07:09:00.193Z,87.70
2019-05-05T07:12:07.235Z,82.20
2019-05-05T07:15:14.630Z,69.00
2019-05-05T07:18:21.620Z,71.40
2019-05-05T07:21:28.582Z,66.80
2019-05-05T07:24:35.610Z,63.50
2019-05-05T07:27:44.271Z,68.20
2019-05-05T07:30:51.356Z,72.50
2019-05-05T07:33:58.317Z,63.00
2019-05-05T07:37:05.298Z,60.10
2019-05-05T07:40:13.526Z,55.10
2019-05-05T07:43:20.615Z,57.90
2019-05-05T07:46:27.698Z,59.70
2019-05-05T07:49:34.818Z,65.20
2019-05-05T07:52:43.759Z,62.40
2019-05-05T07:55:50.414Z,59.10
2019-05-05T07:58:57.436Z,57.60
2019-05-05T08:02:04.572Z,58.10
2019-05-05T08:05:13.944Z,57.70
2019-05-05T08:08:20.341Z,58.00
2019-05-05T08:11:27.394Z,64.10
2019-05-05T08:14:34.358Z,56.10
2019-05-05T08:18:04.553Z,62.60
2019-05-05T08:21:13.623Z,55.50
2019-05-05T08:24:27.603Z,54.50
2019-05-05T08:28:00.756Z,55.00
2019-05-05T08:31:26.709Z,57.40
2019-05-05T08:34:34.016Z,55.70
2019-05-05T08:37:41.202Z,55.70
2019-05-05T08:40:48.195Z,57.40
2019-05-05T08:43:55.258Z,60.30
2019-05-05T08:47:04.279Z,59.90
2019-05-05T08:50:13.736Z,57.70
2019-05-05T08:53:20.888Z,55.20
2019-05-05T08:56:27.867Z,57.50
2019-05-05T08:59:34.864Z,55.10
2019-05-05T09:02:43.741Z,55.40
2019-05-05T09:05:50.566Z,57.20
2019-05-05T09:08:57.548Z,56.90
2019-05-05T09:12:04.926Z,55.00
2019-05-05T09:15:13.662Z,47.80
2019-05-05T09:18:20.720Z,51.10
2019-05-05T09:21:27.747Z,50.70
2019-05-05T09:24:40.171Z,51.30
2019-05-05T09:27:53.511Z,54.00
2019-05-05T09:31:00.035Z,58.10
2019-05-05T09:34:07.069Z,57.90
2019-05-05T09:37:14.461Z,53.30
2019-05-05T09:40:30.255Z,53.80
2019-05-05T09:43:37.381Z,57.80
2019-05-05T09:46:44.726Z,50.40
2019-05-05T09:49:51.652Z,45.70
2019-05-05T09:53:00.472Z,49.70
2019-05-05T09:56:07.554Z,49.90
2019-05-05T09:59:14.651Z,51.70
2019-05-05T10:02:23.826Z,54.10
2019-05-05T10:05:30.237Z,56.80
2019-05-05T10:08:37.205Z,60.30
2019-05-05T10:11:44.983Z,63.10
2019-05-05T10:14:54.057Z,62.30
2019-05-05T10:18:00.678Z,60.30
2019-05-05T10:21:07.635Z,57.80
2019-05-05T10:24:30.971Z,56.30
2019-05-05T10:27:44.922Z,53.90
2019-05-05T10:30:45.786Z,50.80
2019-05-05T10:33:56.981Z,51.50
2019-05-05T10:37:04.848Z,52.90
2019-05-05T10:40:13.420Z,56.60
2019-05-05T10:43:20.453Z,58.40
2019-05-05T10:46:27.426Z,59.20
2019-05-05T10:49:34.428Z,60.30
2019-05-05T10:52:41.500Z,59.30
2019-05-05T10:55:48.483Z,60.80
2019-05-05T10:58:55.475Z,60.10
2019-05-05T11:02:04.618Z,60.20
2019-05-05T11:05:11.800Z,62.00
2019-05-05T11:08:18.886Z,63.20
2019-05-05T11:11:25.902Z,63.10
2019-05-05T11:14:33.676Z,61.60
2019-05-05T11:17:40.763Z,62.20
2019-05-05T11:20:47.833Z,62.70
2019-05-05T11:23:54.831Z,62.60
2019-05-05T11:27:01.825Z,60.90
2019-05-05T11:30:26.739Z,63.20
2019-05-05T11:33:49.442Z,64.20
2019-05-05T11:37:00.117Z,62.50
2019-05-05T11:40:07.157Z,61.30
2019-05-05T11:43:14.346Z,57.90
2019-05-05T11:46:21.358Z,58.60
2019-05-05T11:49:28.401Z,62.50
2019-05-05T11:52:35.419Z,60.50
2019-05-05T11:55:44.279Z,59.60
2019-05-05T11:58:51.058Z,60.10
2019-05-05T12:01:58.084Z,60.80
2019-05-05T12:05:05.355Z,65.90
2019-05-05T12:08:14.447Z,63.30
2019-05-05T12:11:21.009Z,63.80
2019-05-05T12:14:29.571Z,65.00
2019-05-05T12:17:36.974Z,66.30
2019-05-05T12:20:44.318Z,71.00
2019-05-05T12:23:51.370Z,67.80
2019-05-05T12:27:20.359Z,67.50
2019-05-05T12:30:27.366Z,67.20
2019-05-05T12:33:34.403Z,66.50
2019-05-05T12:36:41.420Z,67.10
2019-05-05T12:39:48.416Z,67.40
2019-05-05T12:42:55.480Z,65.60
2019-05-05T12:46:24.421Z,62.40
2019-05-05T12:49:31.426Z,63.20
2019-05-05T12:52:38.973Z,69.30
2019-05-05T12:55:46.077Z,72.90
2019-05-05T12:58:54.522Z,71.00
2019-05-05T13:02:03.682Z,72.10
2019-05-05T13:05:10.403Z,72.10
2019-05-05T13:08:18.291Z,70.20
2019-05-05T13:11:25.350Z,69.30
2019-05-05T13:14:33.633Z,68.40
2019-05-05T13:17:40.870Z,69.10
2019-05-05T13:21:12.622Z,71.70
2019-05-05T13:24:37.102Z,63.30
2019-05-05T13:27:44.849Z,63.00
2019-05-05T13:30:53.960Z,63.30
2019-05-05T13:34:00.495Z,65.40
2019-05-05T13:37:07.548Z,64.50
2019-05-05T13:40:14.849Z,65.30
2019-05-05T13:43:23.677Z,69.10
2019-05-05T13:46:33.795Z,69.50
2019-05-05T13:49:40.887Z,66.50
2019-05-05T13:52:47.869Z,65.40
2019-05-05T13:56:08.564Z,65.40
2019-05-05T13:59:03.519Z,64.70
2019-05-05T14:02:10.796Z,64.70
2019-05-05T14:05:17.783Z,64.30
2019-05-05T14:08:24.767Z,64.40
2019-05-05T14:11:33.866Z,63.40
2019-05-05T14:14:40.972Z,61.60
2019-05-05T14:17:48.003Z,60.40
2019-05-05T14:20:55.043Z,60.50
2019-05-05T14:24:27.147Z,63.70
2019-05-05T14:27:34.132Z,62.30
2019-05-05T14:31:00.054Z,64.60
2019-05-05T14:34:15.098Z,64.00
2019-05-05T14:37:41.018Z,64.50
2019-05-05T14:40:48.080Z,63.50
2019-05-05T14:43:56.548Z,62.70
2019-05-05T14:47:03.707Z,62.60
2019-05-05T14:50:10.882Z,61.50
2019-05-05T14:53:17.909Z,59.90
2019-05-05T14:56:35.675Z,62.90
2019-05-05T14:59:34.049Z,63.30
2019-05-05T15:02:43.760Z,59.20
2019-05-05T15:06:03.998Z,59.70
2019-05-05T15:09:20.364Z,60.80
2019-05-05T15:12:39.902Z,58.80
2019-05-05T15:15:46.896Z,60.10
2019-05-05T15:18:53.914Z,59.20
2019-05-05T15:22:00.904Z,57.50
2019-05-05T15:25:07.987Z,59.50
2019-05-05T15:28:15.071Z,58.10
2019-05-05T15:31:23.687Z,59.10
2019-05-05T15:34:30.850Z,61.60
2019-05-05T15:37:37.847Z,57.10
2019-05-05T15:40:47.935Z,58.00
2019-05-05T15:43:54.384Z,58.50
2019-05-05T15:47:01.487Z,59.00
2019-05-05T15:50:08.923Z,61.00
2019-05-05T15:53:16.854Z,60.10
2019-05-05T15:56:24.485Z,61.20
2019-05-05T15:59:31.473Z,60.90
2019-05-05T16:02:38.528Z,62.00
2019-05-05T16:05:45.543Z,61.20
2019-05-05T16:08:54.481Z,60.40
2019-05-05T16:12:01.116Z,60.70
2019-05-05T16:15:30.926Z,59.80
2019-05-05T16:19:05.530Z,63.70
2019-05-05T16:22:17.344Z,65.50
2019-05-05T16:25:23.029Z,62.10
2019-05-05T16:28:30.040Z,63.40
2019-05-05T16:31:37.237Z,62.90
2019-05-05T16:34:44.237Z,64.40
2019-05-05T16:37:51.227Z,65.30
2019-05-05T16:40:58.234Z,64.00
2019-05-05T16:44:05.601Z,65.60
2019-05-05T16:47:13.575Z,65.30
2019-05-05T16:50:21.230Z,63.90
2019-05-05T16:53:38.093Z,64.90
2019-05-05T16:56:45.208Z,67.70
2019-05-05T16:59:53.561Z,65.50
2019-05-05T17:03:00.598Z,66.00
2019-05-05T17:06:07.579Z,67.10
2019-05-05T17:09:15.012Z,67.90
2019-05-05T17:12:22.039Z,66.60
2019-05-05T17:15:46.807Z,67.90
2019-05-05T17:19:08.721Z,68.00
2019-05-05T17:22:20.246Z,64.30
2019-05-05T17:25:27.325Z,64.50
2019-05-05T17:28:34.405Z,67.40
2019-05-05T17:31:41.373Z,68.80
2019-05-05T17:34:48.356Z,68.70
2019-05-05T17:37:58.580Z,72.40
2019-05-05T17:41:30.653Z,72.20
2019-05-05T17:45:08.763Z,73.50
2019-05-05T17:48:46.587Z,70.90
2019-05-05T17:52:01.332Z,73.40
2019-05-05T17:55:27.908Z,73.00
2019-05-05T17:58:35.010Z,71.80
2019-05-05T18:01:43.906Z,73.30
2019-05-05T18:04:50.718Z,74.70
2019-05-05T18:07:57.701Z,77.10
2019-05-05T18:11:08.794Z,80.20
2019-05-05T18:14:20.392Z,84.20
2019-05-05T18:17:27.340Z,88.20
2019-05-05T18:20:34.342Z,92.40
2019-05-05T18:23:41.328Z,93.40
2019-05-05T18:26:48.308Z,95.40
2019-05-05T18:29:55.394Z,97.10
2019-05-05T18:33:04.089Z,99.90
2019-05-05T18:36:11.222Z,99.90
2019-05-05T18:39:18.537Z,99.90
2019-05-05T18:42:26.467Z,99.90
2019-05-05T18:45:35.444Z,99.90
2019-05-05T18:52:04.121Z,99.90
2019-05-05T18:55:11.471Z,99.90
2019-05-05T18:58:27.422Z,99.90
2019-05-05T19:01:51.864Z,99.90
2019-05-05T19:05:26.966Z,99.90
2019-05-05T19:08:53.635Z,99.90
2019-05-05T19:11:54.548Z,99.90
2019-05-05T19:15:01.773Z,99.90
2019-05-05T19:18:08.859Z,99.90
2019-05-05T19:21:37.707Z,99.90
2019-05-05T19:24:45.548Z,99.90
2019-05-05T19:27:53.670Z,99.90
2019-05-05T19:31:01.350Z,99.90
2019-05-05T19:34:08.347Z,99.90
2019-05-05T19:37:15.419Z,99.90
2019-05-05T19:40:24.267Z,99.90
2019-05-05T19:43:31.114Z,99.90
2019-05-05T19:46:57.170Z,99.90
2019-05-05T19:50:11.235Z,99.90
2019-05-05T19:53:27.230Z,99.90
2019-05-05T19:56:34.279Z,99.90
2019-05-05T19:59:41.281Z,99.90
2019-05-05T20:03:01.437Z,99.90
2019-05-05T20:05:56.952Z,99.90
2019-05-05T20:09:06.028Z,99.90
2019-05-05T20:12:14.750Z,99.90
2019-05-05T20:15:28.871Z,99.90
2019-05-05T20:18:35.841Z,99.90
2019-05-05T20:21:43.931Z,99.90
2019-05-05T20:24:50.931Z,99.90
2019-05-05T20:27:58.202Z,99.90
2019-05-05T20:31:06.123Z,99.90
2019-05-05T20:34:29.396Z,99.90
2019-05-05T20:37:42.019Z,99.90
2019-05-05T20:41:08.107Z,99.90
2019-05-05T20:44:15.216Z,99.90
2019-05-05T20:47:23.629Z,99.90
2019-05-05T20:50:30.827Z,99.90
2019-05-05T20:53:37.839Z,99.90
2019-05-05T20:56:44.918Z,99.90
2019-05-05T20:59:51.964Z,99.90
2019-05-05T21:02:58.943Z,99.90
2019-05-05T21:06:05.951Z,99.90
2019-05-05T21:09:14.220Z,99.90
2019-05-05T21:12:21.408Z,99.90
2019-05-05T21:15:28.458Z,99.90
2019-05-05T21:18:35.512Z,99.90
2019-05-05T21:21:44.990Z,99.90
2019-05-05T21:24:54.293Z,99.90
2019-05-05T21:28:01.056Z,99.90
2019-05-05T21:31:08.067Z,99.90
2019-05-05T21:34:15.052Z,99.90
2019-05-05T21:37:22.143Z,99.90
2019-05-05T21:40:29.183Z,99.90
2019-05-05T21:43:36.329Z,99.90
2019-05-05T21:46:43.729Z,99.90
2019-05-05T21:49:50.911Z,99.90
2019-05-05T21:53:09.483Z,99.90
2019-05-05T21:56:34.203Z,99.90
2019-05-05T21:59:54.420Z,99.90
2019-05-05T22:02:49.831Z,99.90
2019-05-05T22:05:56.832Z,99.90
2019-05-05T22:09:05.038Z,99.90
2019-05-05T22:12:13.539Z,99.90
2019-05-05T22:15:20.558Z,99.90
2019-05-05T22:18:27.532Z,99.90
2019-05-05T22:21:43.577Z,99.90
2019-05-05T22:24:50.160Z,99.90
2019-05-05T22:27:57.159Z,99.90
2019-05-05T22:31:04.993Z,99.90
2019-05-05T22:34:11.955Z,99.90
2019-05-05T22:37:18.940Z,99.90
2019-05-05T22:40:26.838Z,99.90
2019-05-05T22:43:34.672Z,99.90
2019-05-05T22:46:41.842Z,99.90
2019-05-05T22:49:48.842Z,99.90
2019-05-05T22:52:55.879Z,99.90
2019-05-05T22:56:04.015Z,99.90
2019-05-05T22:59:11.132Z,99.90
2019-05-05T23:02:19.696Z,99.90
2019-05-05T23:05:32.221Z,99.90
2019-05-05T23:08:39.208Z,99.90
2019-05-05T23:11:46.197Z,99.90
2019-05-05T23:14:54.555Z,99.90
2019-05-05T23:18:19.581Z,99.90
2019-05-05T23:21:45.007Z,99.90
2019-05-05T23:24:56.695Z,99.90
2019-05-05T23:28:04.117Z,99.90
2019-05-05T23:31:11.172Z,99.90
2019-05-05T23:34:18.160Z,99.90
2019-05-05T23:37:25.197Z,99.90
2019-05-05T23:40:33.986Z,99.90
2019-05-05T23:43:41.047Z,99.90
2019-05-05T23:46:48.031Z,99.90
2019-05-05T23:49:55.076Z,99.90
2019-05-05T23:53:02.081Z,99.90
2019-05-05T23:56:09.132Z,99.90
2019-05-05T23:59:16.131Z,99.90
